createdAt,value
2023-01-18T00:01:52.474Z,38.28
2023-01-18T00:04:24.441Z,44.83
2023-01-18T00:06:55.369Z,25.33
2023-01-18T00:09:27.021Z,37.83
2023-01-18T00:11:58.707Z,37.30
2023-01-18T00:14:30.268Z,50.25
2023-01-18T00:17:03.835Z,36.05
2023-01-18T00:19:39.579Z,34.55
2023-01-18T00:22:10.566Z,34.45
2023-01-18T00:24:43.364Z,40.08
2023-01-18T00:27:17.012Z,45.50
2023-01-18T00:29:50.405Z,51.88
2023-01-18T00:32:21.376Z,43.95
2023-01-18T00:34:53.790Z,54.80
2023-01-18T00:37:26.928Z,31.52
2023-01-18T00:39:58.000Z,38.03
2023-01-18T00:42:48.694Z,53.85
2023-01-18T00:45:22.110Z,68.88
2023-01-18T00:47:53.305Z,30.60
2023-01-18T00:50:27.236Z,41.60
2023-01-18T00:52:59.956Z,44.10
2023-01-18T00:58:06.384Z,44.40
2023-01-18T01:00:38.275Z,55.75
2023-01-18T01:03:08.993Z,55.72
2023-01-18T01:05:59.331Z,42.15
2023-01-18T01:08:31.001Z,34.90
2023-01-18T01:11:15.044Z,38.75
2023-01-18T01:14:05.114Z,41.53
2023-01-18T01:16:55.996Z,60.78
2023-01-18T01:19:44.773Z,51.45
2023-01-18T01:22:34.204Z,51.47
2023-01-18T01:25:23.739Z,53.80
2023-01-18T01:27:54.938Z,45.47
2023-01-18T01:30:27.450Z,42.92
2023-01-18T01:33:01.628Z,35.58
2023-01-18T01:35:32.124Z,33.33
2023-01-18T01:38:03.771Z,34.50
2023-01-18T01:40:34.741Z,39.03
2023-01-18T01:43:07.137Z,29.65
2023-01-18T01:45:40.143Z,35.88
2023-01-18T01:48:13.886Z,29.08
2023-01-18T01:50:45.626Z,32.88
2023-01-18T01:53:16.770Z,33.30
2023-01-18T01:55:49.569Z,19.08
2023-01-18T01:58:27.877Z,22.73
2023-01-18T02:01:01.291Z,24.92
2023-01-18T02:03:34.173Z,34.85
2023-01-18T02:06:27.456Z,33.70
2023-01-18T02:08:59.669Z,30.90
2023-01-18T02:11:32.292Z,29.45
2023-01-18T02:14:10.738Z,28.98
2023-01-18T02:17:10.789Z,30.17
2023-01-18T02:19:47.131Z,25.58
2023-01-18T02:22:33.925Z,25.75
2023-01-18T02:25:13.278Z,34.03
2023-01-18T02:28:18.295Z,27.30
2023-01-18T02:31:18.916Z,26.13
2023-01-18T02:34:04.129Z,25.98
2023-01-18T02:36:52.141Z,39.97
2023-01-18T02:39:45.909Z,33.88
2023-01-18T02:42:42.759Z,34.47
2023-01-18T02:45:42.150Z,20.40
2023-01-18T02:48:12.826Z,23.25
2023-01-18T02:50:43.546Z,33.88
2023-01-18T02:53:18.445Z,26.95
2023-01-18T02:56:02.538Z,27.33
2023-01-18T02:58:42.088Z,14.32
2023-01-18T03:01:39.785Z,22.65
2023-01-18T03:04:19.029Z,31.70
2023-01-18T03:06:54.946Z,30.98
2023-01-18T03:09:29.947Z,22.17
2023-01-18T03:12:11.703Z,31.40
2023-01-18T03:15:15.503Z,28.45
2023-01-18T03:17:59.992Z,37.38
2023-01-18T03:20:38.032Z,51.90
2023-01-18T03:23:39.079Z,37.30
2023-01-18T03:26:17.923Z,37.75
2023-01-18T03:29:12.405Z,20.52
2023-01-18T03:32:14.306Z,34.17
2023-01-18T03:35:09.895Z,19.75
2023-01-18T03:37:56.502Z,42.10
2023-01-18T03:40:31.908Z,29.15
2023-01-18T03:43:15.819Z,29.48
2023-01-18T03:45:48.382Z,19.67
2023-01-18T03:48:19.017Z,31.15
2023-01-18T03:51:10.409Z,34.42
2023-01-18T03:53:54.712Z,38.50
2023-01-18T03:56:55.962Z,42.65
2023-01-18T03:59:30.483Z,32.25
2023-01-18T04:02:05.392Z,41.05
2023-01-18T04:04:36.109Z,33.30
2023-01-18T04:07:09.191Z,57.35
2023-01-18T04:09:39.591Z,40.20
2023-01-18T04:12:22.456Z,27.52
2023-01-18T04:15:19.394Z,26.13
2023-01-18T04:17:57.242Z,53.35
2023-01-18T04:20:28.589Z,29.85
2023-01-18T04:23:00.679Z,46.67
2023-01-18T04:25:33.143Z,25.38
2023-01-18T04:28:03.583Z,50.47
2023-01-18T04:30:35.435Z,34.83
2023-01-18T04:33:06.676Z,45.42
2023-01-18T04:35:38.591Z,51.65
2023-01-18T04:38:11.431Z,36.85
2023-01-18T04:40:43.745Z,29.63
2023-01-18T04:43:15.142Z,26.20
2023-01-18T04:45:49.204Z,9.15
2023-01-18T04:48:21.355Z,34.55
2023-01-18T04:50:54.542Z,21.67
2023-01-18T04:53:26.472Z,22.23
2023-01-18T04:55:56.940Z,9.93
2023-01-18T04:58:28.933Z,16.30
2023-01-18T05:01:07.334Z,13.75
2023-01-18T05:03:39.627Z,15.80
2023-01-18T05:06:13.667Z,21.98
2023-01-18T05:08:46.858Z,28.63
2023-01-18T05:11:22.258Z,12.20
2023-01-18T05:13:52.548Z,18.48
2023-01-18T05:16:37.276Z,34.90
2023-01-18T05:19:12.721Z,23.15
2023-01-18T05:21:44.734Z,10.98
2023-01-18T05:24:15.340Z,17.75
2023-01-18T05:26:46.145Z,26.23
2023-01-18T05:29:17.191Z,9.35
2023-01-18T05:31:48.672Z,22.10
2023-01-18T05:34:20.884Z,20.60
2023-01-18T05:36:52.309Z,41.38
2023-01-18T05:39:31.986Z,25.50
2023-01-18T05:42:06.485Z,30.67
2023-01-18T05:44:46.291Z,29.15
2023-01-18T05:47:22.389Z,32.00
2023-01-18T05:49:54.410Z,31.27
2023-01-18T05:52:29.463Z,19.33
2023-01-18T05:55:12.215Z,29.77
2023-01-18T05:57:48.425Z,39.25
2023-01-18T06:00:21.191Z,23.38
2023-01-18T06:02:53.052Z,37.45
2023-01-18T06:05:31.479Z,13.90
2023-01-18T06:08:04.013Z,8.90
2023-01-18T06:10:42.397Z,26.60
2023-01-18T06:13:13.589Z,19.60
2023-01-18T06:15:49.617Z,37.63
2023-01-18T06:18:26.647Z,25.00
2023-01-18T06:21:01.928Z,18.58
2023-01-18T06:23:37.372Z,26.27
2023-01-18T06:26:50.671Z,19.65
2023-01-18T06:29:22.835Z,24.92
2023-01-18T06:32:05.664Z,43.33
2023-01-18T06:37:25.589Z,25.52
2023-01-18T06:39:57.100Z,39.00
2023-01-18T06:42:29.845Z,57.75
2023-01-18T06:45:03.730Z,51.67
2023-01-18T06:47:37.704Z,35.75
2023-01-18T06:50:14.724Z,46.33
2023-01-18T06:52:48.212Z,34.83
2023-01-18T06:55:21.368Z,38.38
2023-01-18T06:57:55.429Z,40.63
2023-01-18T07:00:28.107Z,28.55
2023-01-18T07:03:06.571Z,36.88
2023-01-18T07:05:38.771Z,18.75
2023-01-18T07:08:25.679Z,13.52
2023-01-18T07:10:58.267Z,11.32
2023-01-18T07:13:31.042Z,32.58
2023-01-18T07:16:05.287Z,31.83
2023-01-18T07:19:03.116Z,9.30
2023-01-18T07:21:37.832Z,22.20
2023-01-18T07:24:30.862Z,19.50
2023-01-18T07:27:01.910Z,24.08
2023-01-18T07:29:39.989Z,15.43
2023-01-18T07:32:25.415Z,30.67
2023-01-18T07:34:57.475Z,25.40
2023-01-18T07:37:30.312Z,32.42
2023-01-18T07:40:01.344Z,30.33
2023-01-18T07:42:33.544Z,42.83
2023-01-18T07:45:04.505Z,41.65
2023-01-18T07:47:41.255Z,23.60
2023-01-18T07:50:13.814Z,37.47
2023-01-18T07:52:46.276Z,37.45
2023-01-18T07:55:18.281Z,55.92
2023-01-18T07:57:49.987Z,25.33
2023-01-18T08:00:20.847Z,33.67
2023-01-18T08:02:56.373Z,33.83
2023-01-18T08:05:30.760Z,13.48
2023-01-18T08:08:01.366Z,10.00
2023-01-18T08:10:31.488Z,6.57
2023-01-18T08:13:01.883Z,6.47
2023-01-18T08:15:33.840Z,3.38
2023-01-18T08:18:06.825Z,1.92
2023-01-18T08:20:37.121Z,0.90
2023-01-18T08:23:07.883Z,0.70
2023-01-18T08:25:38.324Z,1.55
2023-01-18T08:28:08.438Z,2.42
2023-01-18T08:30:45.450Z,0.88
2023-01-18T08:33:17.144Z,0.90
2023-01-18T08:35:49.608Z,0.17
2023-01-18T08:38:19.997Z,1.02
2023-01-18T08:40:51.232Z,0.20
2023-01-18T08:43:26.366Z,1.50
2023-01-18T08:45:56.637Z,0.20
2023-01-18T08:48:26.742Z,1.08
2023-01-18T08:51:01.947Z,1.95
2023-01-18T08:53:33.421Z,0.57
2023-01-18T08:56:08.990Z,0.17
2023-01-18T08:58:39.277Z,0.68
2023-01-18T09:01:10.857Z,0.30
2023-01-18T09:03:41.420Z,1.13
2023-01-18T09:06:13.076Z,1.55
2023-01-18T09:08:54.459Z,1.55
2023-01-18T09:11:27.552Z,1.10
2023-01-18T09:14:02.818Z,1.60
2023-01-18T09:16:33.982Z,1.85
2023-01-18T09:19:08.324Z,0.63
2023-01-18T09:21:41.628Z,1.55
2023-01-18T09:24:13.207Z,0.40
2023-01-18T09:26:46.890Z,1.77
2023-01-18T09:29:22.553Z,0.65
2023-01-18T09:31:55.350Z,1.27
2023-01-18T09:34:26.044Z,0.68
2023-01-18T09:36:59.361Z,0.77
2023-01-18T09:39:43.059Z,1.85
2023-01-18T09:42:27.360Z,0.90
2023-01-18T09:45:01.333Z,3.65
2023-01-18T09:47:42.813Z,2.08
2023-01-18T09:50:24.957Z,1.52
2023-01-18T09:53:10.562Z,0.70
2023-01-18T09:55:59.452Z,0.73
2023-01-18T09:58:54.534Z,0.77
2023-01-18T10:01:30.416Z,1.35
2023-01-18T10:04:08.855Z,0.60
2023-01-18T10:06:45.953Z,0.88
2023-01-18T10:09:28.859Z,31.65
2023-01-18T10:12:03.105Z,29.27
2023-01-18T10:14:47.872Z,32.67
2023-01-18T10:17:28.082Z,24.25
2023-01-18T10:20:02.699Z,36.15
2023-01-18T10:22:49.894Z,32.63
2023-01-18T10:25:34.692Z,24.50
2023-01-18T10:28:29.778Z,29.52
2023-01-18T10:31:36.666Z,30.88
2023-01-18T10:34:18.182Z,26.90
2023-01-18T10:37:19.050Z,11.02
2023-01-18T10:39:54.962Z,32.45
2023-01-18T10:42:35.449Z,15.30
2023-01-18T10:45:11.923Z,39.00
2023-01-18T10:48:00.731Z,42.58
2023-01-18T10:50:40.185Z,39.90
2023-01-18T10:53:25.458Z,20.88
2023-01-18T10:56:14.320Z,46.55
2023-01-18T11:01:58.873Z,33.17
2023-01-18T11:04:34.471Z,22.55
2023-01-18T11:07:10.452Z,47.60
2023-01-18T11:09:57.822Z,56.22
2023-01-18T11:12:43.248Z,35.20
2023-01-18T11:15:17.693Z,17.80
2023-01-18T11:17:59.014Z,13.45
2023-01-18T11:20:50.934Z,9.25
2023-01-18T11:23:36.939Z,29.02
2023-01-18T11:26:19.308Z,23.85
2023-01-18T11:29:02.047Z,22.98
2023-01-18T11:31:47.108Z,18.48
2023-01-18T11:34:33.601Z,14.43
2023-01-18T11:37:06.026Z,25.77
2023-01-18T11:39:39.083Z,30.75
2023-01-18T11:42:27.898Z,23.05
2023-01-18T11:45:19.041Z,19.02
2023-01-18T11:48:24.799Z,46.15
2023-01-18T11:51:09.338Z,25.08
2023-01-18T11:53:55.398Z,22.70
2023-01-18T11:56:42.332Z,33.40
2023-01-18T11:59:37.281Z,27.42
2023-01-18T12:02:44.752Z,36.63
2023-01-18T12:05:36.537Z,40.75
2023-01-18T12:08:44.979Z,38.78
2023-01-18T12:11:34.639Z,22.33
2023-01-18T12:14:48.310Z,40.08
2023-01-18T12:17:46.247Z,54.42
2023-01-18T12:20:37.230Z,53.33
2023-01-18T12:23:35.936Z,47.33
2023-01-18T12:26:46.446Z,25.85
2023-01-18T12:29:42.093Z,43.25
2023-01-18T12:32:52.500Z,46.08
2023-01-18T12:35:35.167Z,51.45
2023-01-18T12:38:30.908Z,38.40
2023-01-18T12:41:26.211Z,32.80
2023-01-18T12:44:27.483Z,34.30
2023-01-18T12:47:13.278Z,31.50
2023-01-18T12:49:59.630Z,32.72
2023-01-18T12:52:42.984Z,24.40
2023-01-18T12:55:23.675Z,18.48
2023-01-18T12:58:00.585Z,24.55
2023-01-18T13:00:49.354Z,28.42
2023-01-18T13:03:28.837Z,27.67
2023-01-18T13:06:06.729Z,29.92
2023-01-18T13:08:45.866Z,19.33
2023-01-18T13:11:44.344Z,12.05
2023-01-18T13:14:39.366Z,26.42
2023-01-18T13:17:45.999Z,25.25
2023-01-18T13:20:52.435Z,17.80
2023-01-18T13:23:47.686Z,41.80
2023-01-18T13:26:35.067Z,10.50
2023-01-18T13:29:15.610Z,25.33
2023-01-18T13:31:48.697Z,15.85
2023-01-18T13:34:48.079Z,17.70
2023-01-18T13:38:01.544Z,22.33
2023-01-18T13:40:41.060Z,26.83
2023-01-18T13:43:40.025Z,14.88
2023-01-18T13:46:12.065Z,45.72
2023-01-18T13:49:36.768Z,21.52
2023-01-18T13:52:38.240Z,10.07
2023-01-18T13:55:29.415Z,18.27
2023-01-18T13:58:11.810Z,23.58
2023-01-18T14:00:50.816Z,21.15
2023-01-18T14:03:30.727Z,21.20
2023-01-18T14:06:13.501Z,19.95
2023-01-18T14:08:56.439Z,23.85
2023-01-18T14:11:41.711Z,29.00
2023-01-18T14:14:20.492Z,28.77
2023-01-18T14:17:03.563Z,23.38
2023-01-18T14:20:02.454Z,14.52
2023-01-18T14:22:49.577Z,23.65
2023-01-18T14:25:42.050Z,25.73
2023-01-18T14:28:23.097Z,19.90
2023-01-18T14:31:00.686Z,44.53
2023-01-18T14:33:44.559Z,17.23
2023-01-18T14:36:27.415Z,18.67
2023-01-18T14:39:36.122Z,29.58
2023-01-18T14:42:08.541Z,20.15
2023-01-18T14:44:58.365Z,23.10
2023-01-18T14:47:36.404Z,10.18
2023-01-18T14:50:14.745Z,18.40
2023-01-18T14:52:48.613Z,21.67
2023-01-18T14:55:47.734Z,27.17
2023-01-18T14:58:20.550Z,26.10
2023-01-18T15:00:56.672Z,27.17
2023-01-18T15:03:33.922Z,20.52
2023-01-18T15:06:22.548Z,17.23
2023-01-18T15:08:58.585Z,21.00
2023-01-18T15:11:31.199Z,24.58
2023-01-18T15:14:06.831Z,10.38
2023-01-18T15:16:38.656Z,14.40
2023-01-18T15:19:21.095Z,12.95
2023-01-18T15:21:54.074Z,26.45
2023-01-18T15:24:31.337Z,23.90
2023-01-18T15:27:06.668Z,21.02
2023-01-18T15:29:41.606Z,35.22
2023-01-18T15:32:27.916Z,29.88
2023-01-18T15:35:04.717Z,14.52
2023-01-18T15:37:40.231Z,19.48
2023-01-18T15:40:20.145Z,11.80
2023-01-18T15:43:20.340Z,13.15
2023-01-18T15:45:54.913Z,43.92
2023-01-18T15:48:29.048Z,15.57
2023-01-18T15:51:10.295Z,20.65
2023-01-18T15:53:56.036Z,30.17
2023-01-18T15:56:32.742Z,8.32
2023-01-18T15:59:10.245Z,34.20
2023-01-18T16:01:48.700Z,11.82
2023-01-18T16:04:25.309Z,32.92
2023-01-18T16:07:00.736Z,19.05
2023-01-18T16:09:32.177Z,16.88
2023-01-18T16:12:10.423Z,17.73
2023-01-18T16:14:48.264Z,15.32
2023-01-18T16:17:26.371Z,18.02
2023-01-18T16:20:03.470Z,14.68
2023-01-18T16:22:39.738Z,14.55
2023-01-18T16:25:18.668Z,23.15
2023-01-18T16:27:54.271Z,24.00
2023-01-18T16:30:31.349Z,43.17
2023-01-18T16:33:15.596Z,13.95
2023-01-18T16:35:47.242Z,31.08
2023-01-18T16:38:20.911Z,5.75
2023-01-18T16:40:54.979Z,19.65
2023-01-18T16:43:34.271Z,12.40
2023-01-18T16:46:06.640Z,9.77
2023-01-18T16:48:41.280Z,18.88
2023-01-18T16:51:24.058Z,34.30
2023-01-18T16:53:57.471Z,19.42
2023-01-18T16:56:36.931Z,26.13
2023-01-18T16:59:29.089Z,27.58
2023-01-18T17:02:04.062Z,17.98
2023-01-18T17:04:40.007Z,30.65
2023-01-18T17:07:13.076Z,21.27
2023-01-18T17:09:48.649Z,27.20
2023-01-18T17:12:20.815Z,42.53
2023-01-18T17:14:57.987Z,23.55
2023-01-18T17:17:33.720Z,26.90
2023-01-18T17:20:17.441Z,23.63
2023-01-18T17:22:51.270Z,45.83
2023-01-18T17:25:28.021Z,22.65
2023-01-18T17:28:00.897Z,17.83
2023-01-18T17:30:32.530Z,14.40
2023-01-18T17:33:07.082Z,9.68
2023-01-18T17:35:38.883Z,19.90
2023-01-18T17:38:22.118Z,11.85
2023-01-18T17:40:54.834Z,24.80
2023-01-18T17:43:34.145Z,10.25
2023-01-18T17:46:17.756Z,8.00
2023-01-18T17:48:51.036Z,25.90
2023-01-18T17:51:24.225Z,26.75
2023-01-18T17:53:56.681Z,30.75
2023-01-18T17:56:28.051Z,42.72
2023-01-18T17:58:58.501Z,27.92
2023-01-18T18:01:32.448Z,25.10
2023-01-18T18:04:03.419Z,16.55
2023-01-18T18:06:38.225Z,11.27
2023-01-18T18:09:11.749Z,18.70
2023-01-18T18:11:42.975Z,28.77
2023-01-18T18:14:15.455Z,19.75
2023-01-18T18:16:50.842Z,11.90
2023-01-18T18:19:21.887Z,19.05
2023-01-18T18:21:55.682Z,21.55
2023-01-18T18:24:28.983Z,20.05
2023-01-18T18:27:03.065Z,30.73
2023-01-18T18:29:35.747Z,16.52
2023-01-18T18:32:08.886Z,23.52
2023-01-18T18:34:43.010Z,42.92
2023-01-18T18:37:20.134Z,26.90
2023-01-18T18:39:50.480Z,35.03
2023-01-18T18:42:22.885Z,33.13
2023-01-18T18:45:00.845Z,18.98
2023-01-18T18:47:39.692Z,14.18
2023-01-18T18:50:13.790Z,30.75
2023-01-18T18:52:47.768Z,12.55
2023-01-18T18:55:22.677Z,22.20
2023-01-18T18:57:53.703Z,40.22
2023-01-18T19:00:31.454Z,30.55
2023-01-18T19:03:08.629Z,32.17
2023-01-18T19:08:31.672Z,25.52
2023-01-18T19:11:02.570Z,26.88
2023-01-18T19:13:48.497Z,18.58
2023-01-18T19:16:21.176Z,24.80
2023-01-18T19:18:56.604Z,39.17
2023-01-18T19:21:30.187Z,52.65
2023-01-18T19:24:08.898Z,19.20
2023-01-18T19:26:43.329Z,36.58
2023-01-18T19:29:18.665Z,26.00
2023-01-18T19:31:54.747Z,30.58
2023-01-18T19:34:28.062Z,27.00
2023-01-18T19:36:58.863Z,27.75
2023-01-18T19:39:33.228Z,25.98
2023-01-18T19:42:08.920Z,35.78
2023-01-18T19:44:46.656Z,52.70
2023-01-18T19:47:18.603Z,24.70
2023-01-18T19:50:00.552Z,41.65
2023-01-18T19:52:34.294Z,27.58
2023-01-18T19:55:07.601Z,40.70
2023-01-18T19:57:40.280Z,42.47
2023-01-18T20:00:16.985Z,24.25
2023-01-18T20:02:49.407Z,38.63
2023-01-18T20:05:28.095Z,24.33
2023-01-18T20:08:00.543Z,28.35
2023-01-18T20:10:31.500Z,43.88
2023-01-18T20:13:05.170Z,26.30
2023-01-18T20:15:47.392Z,24.80
2023-01-18T20:18:19.464Z,29.38
2023-01-18T20:20:57.015Z,33.88
2023-01-18T20:23:30.097Z,50.40
2023-01-18T20:26:01.344Z,29.77
2023-01-18T20:28:35.796Z,19.05
2023-01-18T20:31:10.495Z,28.35
2023-01-18T20:33:42.488Z,39.17
2023-01-18T20:36:16.349Z,44.67
2023-01-18T20:38:47.398Z,33.97
2023-01-18T20:41:20.194Z,27.65
2023-01-18T20:43:51.868Z,21.73
2023-01-18T20:46:22.902Z,28.10
2023-01-18T20:48:56.203Z,35.13
2023-01-18T20:51:29.411Z,42.15
2023-01-18T20:54:04.424Z,32.17
2023-01-18T20:56:38.835Z,38.63
2023-01-18T20:59:14.180Z,24.48
2023-01-18T21:01:46.859Z,48.50
2023-01-18T21:04:19.006Z,35.60
2023-01-18T21:06:52.170Z,38.97
2023-01-18T21:09:32.021Z,28.27
2023-01-18T21:12:04.098Z,33.95
2023-01-18T21:14:36.366Z,33.60
2023-01-18T21:17:08.111Z,36.75
2023-01-18T21:19:40.475Z,32.55
2023-01-18T21:22:14.037Z,43.53
2023-01-18T21:24:46.443Z,18.48
2023-01-18T21:27:24.113Z,46.90
2023-01-18T21:29:59.851Z,37.97
2023-01-18T21:32:31.111Z,30.73
2023-01-18T21:35:04.041Z,35.42
2023-01-18T21:37:39.320Z,32.33
2023-01-18T21:40:12.454Z,43.05
2023-01-18T21:43:02.364Z,48.20
2023-01-18T21:45:53.837Z,38.72
2023-01-18T21:48:30.938Z,35.90
2023-01-18T21:51:26.178Z,39.00
2023-01-18T21:54:20.433Z,31.08
2023-01-18T21:56:53.814Z,36.53
2023-01-18T21:59:27.381Z,27.00
2023-01-18T22:01:58.560Z,40.30
2023-01-18T22:04:54.365Z,47.03
2023-01-18T22:07:28.712Z,43.13
2023-01-18T22:10:10.409Z,53.35
2023-01-18T22:12:42.134Z,42.75
2023-01-18T22:15:15.088Z,47.17
2023-01-18T22:17:46.286Z,43.53
2023-01-18T22:20:29.270Z,62.80
2023-01-18T22:23:02.212Z,41.45
2023-01-18T22:25:32.451Z,40.22
2023-01-18T22:28:03.556Z,45.83
2023-01-18T22:30:36.743Z,44.33
2023-01-18T22:33:07.712Z,44.95
2023-01-18T22:35:41.228Z,51.75
2023-01-18T22:38:13.400Z,25.13
2023-01-18T22:40:45.265Z,45.17
2023-01-18T22:43:16.336Z,42.97
2023-01-18T22:45:59.586Z,43.40
2023-01-18T22:48:30.850Z,52.55
2023-01-18T22:51:06.690Z,49.63
2023-01-18T22:53:38.312Z,44.20
2023-01-18T22:56:27.857Z,42.05
2023-01-18T22:58:59.714Z,28.60
2023-01-18T23:01:35.657Z,49.92
2023-01-18T23:04:08.414Z,42.72
2023-01-18T23:06:51.553Z,38.53
2023-01-18T23:09:22.860Z,39.58
2023-01-18T23:11:54.133Z,40.08
2023-01-18T23:15:02.510Z,27.13
2023-01-18T23:20:19.441Z,35.45
2023-01-18T23:22:51.781Z,43.10
2023-01-18T23:25:22.896Z,55.97
2023-01-18T23:27:53.436Z,38.80
2023-01-18T23:30:26.262Z,57.15
2023-01-18T23:32:57.708Z,40.05
2023-01-18T23:35:28.886Z,42.60
2023-01-18T23:38:01.113Z,28.30
2023-01-18T23:40:51.289Z,33.38
2023-01-18T23:43:41.279Z,42.95
2023-01-18T23:46:33.664Z,55.10
2023-01-18T23:49:22.684Z,49.67
2023-01-18T23:52:14.541Z,30.77
2023-01-18T23:54:48.370Z,48.70
2023-01-18T23:57:19.390Z,43.58
2023-01-18T23:59:53.646Z,35.55
